Time;durP1;ratioP1;P1;durP2;ratioP2;P2;SDS_P1;SDS_P2;PMS_P1;PMS_P2;Temp;Humidity;BMP_temperature;BMP_pressure;BME280_temperature;BME280_humidity;BME280_pressure;Samples;Min_cycle;Max_cycle;Signal;HPM_P1;HPM_P2
2022/06/09 00:02:22;;;;;;;0.22;0.13;;;;;;;23.71;51.23;99865.38;4972225;28;20049;-61
2022/06/09 00:05:09;;;;;;;1.33;0.28;;;;;;;23.75;50.97;99866.09;4973010;28;20545;-61
2022/06/09 00:07:56;;;;;;;5.25;0.28;;;;;;;23.77;51.07;99869.19;4974554;28;20049;-61
2022/06/09 00:10:47;;;;;;;0.45;0.13;;;;;;;23.79;50.82;99872.34;4972032;28;20061;-61
2022/06/09 00:13:34;;;;;;;1.35;0.38;;;;;;;23.77;51.04;99876.78;4971716;28;20046;-62
2022/06/09 00:16:19;;;;;;;2.85;0.50;;;;;;;23.74;50.92;99872.84;4973286;28;20061;-61
2022/06/09 00:19:05;;;;;;;3.00;0.50;;;;;;;23.73;51.13;99873.25;4970184;28;20418;-61
2022/06/09 00:21:50;;;;;;;2.08;0.30;;;;;;;23.70;51.36;99877.69;4972667;28;20046;-61
2022/06/09 00:24:35;;;;;;;1.83;0.30;;;;;;;23.72;51.33;99871.72;4972392;28;20058;-61
2022/06/09 00:27:19;;;;;;;1.63;0.70;;;;;;;23.76;51.48;99873.22;4973571;28;20045;-61
2022/06/09 00:30:06;;;;;;;1.67;0.30;;;;;;;23.78;51.42;99875.53;4978163;28;20053;-61
2022/06/09 00:32:51;;;;;;;2.97;0.38;;;;;;;23.73;51.46;99879.59;4972565;28;20513;-61
2022/06/09 00:35:36;;;;;;;1.58;0.40;;;;;;;23.74;51.31;99875.63;4973916;28;20053;-61
2022/06/09 00:38:21;;;;;;;4.00;0.55;;;;;;;23.73;51.34;99889.91;4972586;28;20050;-61
2022/06/09 00:41:06;;;;;;;3.65;0.35;;;;;;;23.70;51.24;99888.78;4972816;28;20045;-61
2022/06/09 00:43:52;;;;;;;2.03;0.35;;;;;;;23.69;51.21;99890.00;4972695;28;20513;-61
2022/06/09 00:46:38;;;;;;;0.77;0.20;;;;;;;23.70;51.17;99888.78;4971978;28;20409;-61
2022/06/09 00:49:30;;;;;;;3.95;0.70;;;;;;;23.72;51.09;99883.56;4961982;28;20119;-62
2022/06/09 00:52:19;;;;;;;3.40;0.60;;;;;;;23.68;51.20;99885.63;4972468;28;20053;-61
2022/06/09 00:55:11;;;;;;;0.70;0.40;;;;;;;23.67;51.07;99886.84;4967356;28;20041;-61
2022/06/09 00:58:02;;;;;;;5.70;0.32;;;;;;;23.64;51.01;99886.91;4965761;28;20062;-61
2022/06/09 01:00:55;;;;;;;1.55;0.10;;;;;;;23.57;51.22;99885.03;4972656;28;20050;-61
2022/06/09 01:03:50;;;;;;;2.42;0.20;;;;;;;23.55;50.93;99878.34;4972520;28;20057;-61
2022/06/09 01:06:41;;;;;;;1.10;0.30;;;;;;;23.45;51.54;99877.34;4974817;28;20414;-61
2022/06/09 01:10:06;;;;;;;0.73;0.20;;;;;;;23.36;51.90;99877.84;4971433;28;20501;-61
2022/06/09 01:25:58;;;;;;;2.60;0.38;;;;;;;23.26;53.05;99889.13;4977936;28;20062;-62
2022/06/09 01:29:20;;;;;;;4.38;0.50;;;;;;;23.27;52.71;99894.25;4976197;28;20521;-61
2022/06/09 01:32:31;;;;;;;2.90;0.57;;;;;;;23.29;52.83;99894.63;4975394;28;20042;-62
2022/06/09 01:35:38;;;;;;;1.13;0.30;;;;;;;23.24;52.88;99891.53;4971793;28;20046;-61
2022/06/09 01:38:23;;;;;;;1.90;0.25;;;;;;;23.13;53.34;99888.91;4973514;28;20067;-62
2022/06/09 01:41:07;;;;;;;1.48;0.30;;;;;;;23.07;52.97;99876.72;4975908;28;20054;-62
2022/06/09 01:43:55;;;;;;;1.02;0.20;;;;;;;23.16;53.81;99879.75;4976011;28;20241;-61
2022/06/09 01:46:44;;;;;;;5.35;0.68;;;;;;;23.14;52.72;99875.84;4977021;28;20049;-61
2022/06/09 01:49:32;;;;;;;5.05;0.40;;;;;;;23.13;52.81;99874.25;4975765;28;20046;-61
2022/06/09 01:52:18;;;;;;;3.58;0.38;;;;;;;23.11;53.10;99877.44;4975113;28;20050;-61
2022/06/09 01:55:06;;;;;;;0.47;0.30;;;;;;;23.15;51.72;99874.63;4970022;28;20045;-61
2022/06/09 01:57:57;;;;;;;0.60;0.25;;;;;;;23.15;52.40;99877.41;4975911;28;20063;-61
2022/06/09 02:00:43;;;;;;;1.88;0.30;;;;;;;23.13;53.13;99874.25;4989373;28;20058;-61
2022/06/09 02:03:34;;;;;;;2.53;0.45;;;;;;;23.13;53.03;99868.72;4975177;28;20069;-61
2022/06/09 02:06:20;;;;;;;0.63;0.20;;;;;;;23.05;52.80;99867.28;4980120;28;20123;-61
2022/06/09 02:09:05;;;;;;;1.25;0.28;;;;;;;22.96;52.66;99863.03;4977046;28;20054;-61
2022/06/09 02:11:53;;;;;;;0.70;0.10;;;;;;;22.98;51.22;99862.63;4976488;28;20059;-61
2022/06/09 02:14:44;;;;;;;3.45;0.40;;;;;;;23.03;51.32;99865.69;4978502;28;20768;-61
2022/06/09 02:17:41;;;;;;;0.35;0.20;;;;;;;23.01;49.78;99867.31;4974855;28;20050;-61
2022/06/09 02:20:26;;;;;;;2.50;0.50;;;;;;;22.91;50.66;99863.50;4974930;28;20058;-61
2022/06/09 02:23:13;;;;;;;0.57;0.40;;;;;;;22.98;51.52;99862.63;4974178;28;20046;-61
2022/06/09 02:25:58;;;;;;;0.77;0.10;;;;;;;22.95;52.16;99866.25;4977048;28;20075;-61
2022/06/09 02:28:43;;;;;;;12.82;0.93;;;;;;;22.85;52.81;99870.75;4975631;28;20046;-61
2022/06/09 02:31:28;;;;;;;0.35;0.20;;;;;;;22.80;52.65;99865.66;4974780;28;20057;-61
2022/06/09 02:34:13;;;;;;;1.25;0.32;;;;;;;22.82;53.06;99868.78;4975010;28;20057;-61
2022/06/09 02:36:58;;;;;;;1.00;0.17;;;;;;;22.74;52.96;99866.56;4969497;28;20046;-61
2022/06/09 02:39:43;;;;;;;4.00;0.55;;;;;;;22.84;53.48;99858.09;4963804;28;20042;-61
2022/06/09 02:42:29;;;;;;;2.38;0.20;;;;;;;22.81;53.40;99850.59;4974398;28;20049;-61
2022/06/09 02:45:15;;;;;;;0.50;0.30;;;;;;;22.85;53.15;99858.88;4974189;28;20045;-61
2022/06/09 02:48:01;;;;;;;2.45;0.47;;;;;;;22.89;53.46;99854.03;4973733;28;20054;-61
2022/06/09 02:50:46;;;;;;;0.65;0.28;;;;;;;22.90;53.77;99850.88;4974617;28;20046;-61
2022/06/09 02:53:31;;;;;;;4.78;0.35;;;;;;;22.86;53.73;99844.56;4975959;28;20524;-61
2022/06/09 02:56:16;;;;;;;1.52;0.30;;;;;;;22.74;53.93;99845.16;4978429;28;20037;-61
2022/06/09 02:59:01;;;;;;;2.53;0.70;;;;;;;22.72;54.24;99849.53;4974281;28;20049;-61
2022/06/09 03:01:46;;;;;;;4.18;0.35;;;;;;;22.69;54.81;99851.16;4999874;23;20050;-79
2022/06/09 03:04:30;;;;;;;6.85;0.45;;;;;;;22.78;55.26;99843.13;5011193;28;20538;-78
2022/06/09 03:07:15;;;;;;;1.10;0.50;;;;;;;22.72;55.36;99839.25;5014273;28;20041;-78
2022/06/09 03:10:00;;;;;;;3.28;0.60;;;;;;;22.72;55.18;99836.47;5009420;28;20049;-78
2022/06/09 03:12:45;;;;;;;1.85;0.50;;;;;;;22.66;55.35;99835.34;5006944;28;20048;-78
2022/06/09 03:15:30;;;;;;;1.23;0.40;;;;;;;22.54;56.38;99835.91;4998476;28;20053;-79
2022/06/09 03:18:15;;;;;;;3.65;0.55;;;;;;;22.35;56.75;99829.03;5005782;28;20060;-79
2022/06/09 03:21:00;;;;;;;2.80;1.00;;;;;;;22.40;56.47;99834.13;5008407;28;20053;-79
2022/06/09 03:23:44;;;;;;;1.42;0.60;;;;;;;22.43;56.18;99832.50;5013580;28;20057;-79
2022/06/09 03:26:29;;;;;;;4.10;0.57;;;;;;;22.31;56.80;99838.59;5012380;28;20514;-78
2022/06/09 03:29:14;;;;;;;0.73;0.40;;;;;;;22.45;55.47;99839.19;5013158;28;20048;-78
2022/06/09 03:31:59;;;;;;;3.17;0.45;;;;;;;22.43;55.26;99838.84;5008080;28;20049;-77
2022/06/09 03:34:44;;;;;;;2.15;0.50;;;;;;;22.34;55.91;99835.00;5012653;28;20057;-81
2022/06/09 03:37:28;;;;;;;4.45;0.90;;;;;;;22.38;55.50;99830.22;5016856;28;20052;-77
2022/06/09 03:40:17;;;;;;;0.93;0.65;;;;;;;22.44;55.18;99839.63;5012735;28;20052;-79
2022/06/09 03:43:02;;;;;;;3.15;0.77;;;;;;;22.45;55.18;99841.19;5012302;28;20045;-79
2022/06/09 03:45:47;;;;;;;3.08;0.60;;;;;;;22.40;54.91;99845.19;5006710;28;20053;-78
2022/06/09 03:48:31;;;;;;;1.45;0.70;;;;;;;22.36;55.12;99838.94;5013531;28;20044;-79
2022/06/09 03:51:16;;;;;;;8.57;0.68;;;;;;;22.23;55.62;99846.22;5012692;28;20529;-78
2022/06/09 03:54:01;;;;;;;2.00;0.77;;;;;;;22.13;55.88;99859.00;5016410;28;20049;-77
2022/06/09 03:56:46;;;;;;;6.00;1.88;;;;;;;22.12;55.70;99854.66;5014773;28;20068;-77
2022/06/09 03:59:31;;;;;;;2.80;0.90;;;;;;;22.09;55.72;99860.25;5011772;28;20057;-79
2022/06/09 04:02:16;;;;;;;4.30;0.75;;;;;;;22.17;55.37;99853.44;5016016;28;20057;-77
2022/06/09 04:05:01;;;;;;;6.40;1.65;;;;;;;22.14;55.95;99855.06;5007028;28;20041;-78
2022/06/09 04:07:47;;;;;;;3.20;1.00;;;;;;;22.07;55.62;99855.13;5002935;28;20040;-78
2022/06/09 04:10:33;;;;;;;3.42;0.70;;;;;;;22.14;55.89;99854.25;5002351;28;20428;-78
2022/06/09 04:13:18;;;;;;;3.85;1.50;;;;;;;22.07;56.63;99860.66;5008801;28;20049;-77
2022/06/09 04:16:06;;;;;;;5.32;0.85;;;;;;;22.08;57.16;99867.78;5012880;28;20049;-77
2022/06/09 04:18:52;;;;;;;2.67;1.30;;;;;;;21.97;57.71;99869.88;5012654;28;20053;-78
2022/06/09 04:21:39;;;;;;;3.10;0.85;;;;;;;21.96;57.33;99870.28;5009663;28;20045;-78
2022/06/09 04:24:24;;;;;;;5.38;0.93;;;;;;;21.94;57.32;99870.69;5012123;28;20049;-78
2022/06/09 04:27:09;;;;;;;4.47;1.35;;;;;;;21.96;57.34;99867.50;5012337;28;20049;-76
2022/06/09 04:29:53;;;;;;;4.35;1.08;;;;;;;22.01;57.65;99864.28;5007904;28;20056;-79
2022/06/09 04:32:38;;;;;;;4.45;1.20;;;;;;;21.98;57.80;99873.44;5012720;28;20045;-77
2022/06/09 04:35:24;;;;;;;5.40;0.80;;;;;;;21.95;58.08;99877.00;5009414;28;20053;-77
2022/06/09 04:38:11;;;;;;;6.05;1.45;;;;;;;22.04;57.76;99878.13;5013325;28;20045;-77
2022/06/09 04:40:56;;;;;;;4.47;0.98;;;;;;;22.05;57.96;99879.66;5012242;28;20049;-77
2022/06/09 04:43:44;;;;;;;8.23;1.33;;;;;;;21.90;58.05;99882.97;5013211;28;20052;-81
2022/06/09 04:46:29;;;;;;;7.32;1.10;;;;;;;21.46;60.19;99886.56;5013772;28;20052;-76
2022/06/09 04:49:14;;;;;;;6.13;1.63;;;;;;;21.30;61.74;99884.34;5009703;28;20407;-78
2022/06/09 04:51:59;;;;;;;12.52;3.05;;;;;;;20.70;64.77;99895.78;5005575;28;20057;-77
2022/06/09 04:54:43;;;;;;;7.25;2.00;;;;;;;21.35;63.30;99889.44;5002537;28;20037;-77
2022/06/09 04:57:28;;;;;;;7.70;1.80;;;;;;;21.71;62.19;99898.19;5011556;28;20057;-77
2022/06/09 05:00:14;;;;;;;8.88;2.35;;;;;;;22.00;61.35;99904.25;5011792;28;20049;-77
2022/06/09 05:03:00;;;;;;;10.98;2.03;;;;;;;22.12;60.89;99903.72;5011677;28;20418;-77
2022/06/09 05:05:46;;;;;;;13.18;1.67;;;;;;;22.24;60.55;99908.75;5011802;28;20506;-77
2022/06/09 05:08:31;;;;;;;6.93;1.98;;;;;;;22.40;59.62;99908.16;5012495;28;20060;-76
2022/06/09 05:11:16;;;;;;;3.45;1.38;;;;;;;22.39;59.43;99915.69;5012493;28;20446;-77
2022/06/09 05:14:01;;;;;;;4.72;2.08;;;;;;;22.45;58.08;99918.78;5024164;28;20053;-78
2022/06/09 05:16:45;;;;;;;5.55;1.92;;;;;;;22.47;58.31;99924.69;5004886;28;20049;-76
2022/06/09 05:19:30;;;;;;;4.38;1.73;;;;;;;22.51;58.67;99922.66;5012765;28;20053;-76
2022/06/09 05:22:14;;;;;;;7.70;2.60;;;;;;;22.52;57.92;99919.47;5009777;28;20045;-77
2022/06/09 05:25:00;;;;;;;8.18;2.00;;;;;;;22.50;57.88;99926.63;4992154;28;20061;-77
2022/06/09 05:27:45;;;;;;;2.92;1.90;;;;;;;22.47;57.59;99921.91;5012704;28;20045;-76
2022/06/09 05:30:30;;;;;;;2.90;1.35;;;;;;;22.43;56.37;99923.94;5015882;28;20053;-77
2022/06/09 05:33:15;;;;;;;8.75;1.73;;;;;;;22.53;56.70;99929.34;5011667;28;20045;-75
2022/06/09 05:36:00;;;;;;;4.00;1.20;;;;;;;22.50;56.00;99929.41;5010110;28;20073;-76
2022/06/09 05:44:54;;;;;;;6.85;1.45;;;;;;;22.75;57.56;99937.44;5008513;28;20052;-77
2022/06/09 05:47:39;;;;;;;2.97;0.95;;;;;;;22.82;57.94;99940.88;5013623;28;20056;-77
2022/06/09 05:50:24;;;;;;;5.07;1.10;;;;;;;22.95;58.23;99936.34;5012568;28;20049;-76
2022/06/09 05:53:08;;;;;;;6.22;1.35;;;;;;;22.97;56.60;99933.13;5011737;28;20052;-77
2022/06/09 05:55:53;;;;;;;3.30;1.02;;;;;;;23.00;55.84;99938.66;5009820;28;20049;-77
2022/06/09 05:58:38;;;;;;;3.90;0.93;;;;;;;22.91;55.40;99935.59;5005002;28;20525;-77
2022/06/09 06:01:23;;;;;;;3.85;1.30;;;;;;;22.86;54.96;99944.38;5016273;28;20057;-76
2022/06/09 06:04:08;;;;;;;9.02;1.20;;;;;;;22.84;54.88;99946.81;5015738;28;20080;-76
2022/06/09 06:06:53;;;;;;;3.38;1.35;;;;;;;22.93;55.68;99944.28;5020216;28;20045;-77
2022/06/09 06:09:38;;;;;;;3.90;1.13;;;;;;;22.94;55.04;99956.97;5016722;28;20048;-76
2022/06/09 06:12:23;;;;;;;5.70;1.15;;;;;;;23.02;56.17;99952.09;5020921;28;20418;-76
2022/06/09 06:15:08;;;;;;;1.85;0.80;;;;;;;23.15;57.50;99960.63;5016925;28;20046;-76
2022/06/09 06:17:56;;;;;;;5.65;1.08;;;;;;;23.26;56.81;99964.81;5010648;28;20061;-80
2022/06/09 06:20:41;;;;;;;6.95;1.20;;;;;;;23.15;55.93;99960.63;5023718;28;20057;-79
2022/06/09 06:23:27;;;;;;;4.43;1.13;;;;;;;23.27;54.64;99960.03;5019977;28;20065;-78
2022/06/09 06:26:12;;;;;;;3.10;0.82;;;;;;;23.25;54.20;99956.91;5019220;28;20048;-81
2022/06/09 06:28:57;;;;;;;5.22;0.98;;;;;;;23.25;53.58;99963.25;5016196;28;20049;-78
2022/06/09 06:31:43;;;;;;;3.95;0.63;;;;;;;23.38;54.12;99957.88;5020067;28;20053;-76
2022/06/09 06:34:28;;;;;;;2.13;0.93;;;;;;;23.30;53.78;99956.44;5017201;28;20045;-78
2022/06/09 06:37:13;;;;;;;2.83;1.30;;;;;;;23.46;55.40;99969.72;5018138;28;20069;-78
2022/06/09 06:39:58;;;;;;;1.67;0.63;;;;;;;23.47;55.01;99983.16;5021329;28;20044;-78
2022/06/09 06:42:42;;;;;;;2.97;0.75;;;;;;;23.33;51.82;99981.34;5009193;28;20155;-77
2022/06/09 06:45:28;;;;;;;0.85;0.40;;;;;;;23.48;55.28;99986.72;5017313;28;20045;-79
2022/06/09 06:48:14;;;;;;;2.60;0.70;;;;;;;23.51;53.81;99989.44;5019110;28;20514;-80
2022/06/09 06:50:59;;;;;;;5.82;0.70;;;;;;;23.56;53.96;99994.53;5017380;28;20053;-77
2022/06/09 06:53:45;;;;;;;4.18;0.85;;;;;;;23.62;55.27;99992.81;5015734;28;20057;-78
2022/06/09 06:56:32;;;;;;;5.55;1.10;;;;;;;23.74;55.33;99992.22;5020153;28;20048;-79
2022/06/09 06:59:17;;;;;;;2.88;0.70;;;;;;;23.81;51.01;99994.91;5016163;28;20052;-81
2022/06/09 07:02:03;;;;;;;3.05;0.70;;;;;;;23.74;51.88;99975.56;5015083;28;20049;-77
2022/06/09 07:04:47;;;;;;;0.88;0.50;;;;;;;23.68;50.99;99982.81;5017897;28;20065;-80
2022/06/09 07:07:32;;;;;;;1.10;0.55;;;;;;;23.81;53.30;99981.00;5016604;28;20041;-78
2022/06/09 07:10:18;;;;;;;4.03;0.43;;;;;;;23.90;49.57;99979.66;5015051;28;20068;-76
2022/06/09 07:13:03;;;;;;;3.00;0.77;;;;;;;23.94;48.05;99977.63;5016704;28;20049;-79
2022/06/09 07:15:49;;;;;;;2.58;0.50;;;;;;;23.91;48.16;99984.81;5007426;28;20526;-78
2022/06/09 07:18:35;;;;;;;0.22;0.13;;;;;;;23.83;46.79;99981.34;5015213;28;20052;-79
2022/06/09 07:21:20;;;;;;;0.45;0.40;;;;;;;23.83;49.14;99970.25;5016061;28;20069;-80
2022/06/09 07:24:05;;;;;;;1.65;0.55;;;;;;;23.98;46.15;99978.31;5018157;28;20065;-78
2022/06/09 07:26:51;;;;;;;1.40;0.50;;;;;;;23.94;47.32;99981.19;5013093;28;20048;-78
2022/06/09 07:29:36;;;;;;;0.30;0.20;;;;;;;23.94;47.71;99977.63;5015398;28;20061;-79
2022/06/09 07:32:22;;;;;;;0.90;0.30;;;;;;;24.13;47.65;99974.88;5007178;28;20522;-78
2022/06/09 07:35:08;;;;;;;0.47;0.17;;;;;;;24.06;48.13;99979.78;5004654;28;20032;-78
2022/06/09 07:37:53;;;;;;;0.85;0.40;;;;;;;24.33;45.79;99982.50;5014414;28;20053;-77
2022/06/09 07:40:40;;;;;;;1.27;0.40;;;;;;;24.44;46.30;99985.84;5016430;28;20048;-78
2022/06/09 07:43:25;;;;;;;0.38;0.30;;;;;;;24.30;47.61;99992.47;5016310;28;20422;-79
2022/06/09 07:46:10;;;;;;;3.13;0.38;;;;;;;24.30;47.34;99989.69;5020821;28;20045;-79
2022/06/09 07:48:55;;;;;;;2.05;0.28;;;;;;;24.48;46.48;99992.88;5006696;28;20053;-78
2022/06/09 07:51:40;;;;;;;0.73;0.20;;;;;;;24.57;44.86;99995.91;5011016;28;20041;-80
2022/06/09 07:54:25;;;;;;;0.47;0.20;;;;;;;24.59;44.15;99992.69;5013646;28;20407;-79
2022/06/09 07:57:11;;;;;;;0.77;0.17;;;;;;;24.74;42.49;99996.72;5016877;28;20101;-78
2022/06/09 07:59:56;;;;;;;0.22;0.20;;;;;;;24.68;43.60;99995.69;5009959;28;20052;-77
2022/06/09 08:02:43;;;;;;;0.57;0.30;;;;;;;24.62;42.67;99998.19;5018463;28;20068;-78
2022/06/09 08:05:28;;;;;;;0.55;0.20;;;;;;;24.68;44.24;99981.78;5019227;28;20073;-80
2022/06/09 08:08:12;;;;;;;0.20;0.10;;;;;;;24.81;40.83;99984.69;5016464;28;20049;-81
2022/06/09 08:10:57;;;;;;;0.00;0.00;;;;;;;24.81;43.29;99993.03;5020073;28;20513;-76
2022/06/09 08:13:41;;;;;;;0.70;0.00;;;;;;;24.86;44.71;99981.41;5013899;28;20049;-78
2022/06/09 08:16:28;;;;;;;0.85;0.25;;;;;;;24.85;41.77;99985.38;5014567;28;20048;-76
2022/06/09 08:19:15;;;;;;;2.42;0.13;;;;;;;24.88;43.06;99984.56;5015469;28;20057;-78
2022/06/09 08:22:00;;;;;;;0.60;0.10;;;;;;;24.92;41.33;99988.06;5013195;28;20595;-76
2022/06/09 08:24:46;;;;;;;0.43;0.13;;;;;;;24.98;43.03;99991.91;5013501;28;20048;-77
2022/06/09 08:27:31;;;;;;;0.50;0.20;;;;;;;24.97;41.83;99993.91;5012133;28;20056;-78
2022/06/09 08:30:17;;;;;;;2.83;0.30;;;;;;;25.02;42.59;99984.25;5013329;28;20049;-77
2022/06/09 08:33:02;;;;;;;5.40;0.20;;;;;;;25.07;42.98;99992.88;5014878;28;20541;-77
2022/06/09 08:35:47;;;;;;;0.93;0.20;;;;;;;25.09;44.69;99990.44;5012802;28;20041;-76
2022/06/09 08:38:33;;;;;;;0.98;0.10;;;;;;;25.09;41.16;99992.47;5013834;28;20053;-76
2022/06/09 08:41:35;;;;;;;0.65;0.10;;;;;;;25.10;40.38;99991.22;5009512;28;20067;-77
2022/06/09 08:44:29;;;;;;;5.55;0.20;;;;;;;25.18;40.60;99992.66;5015511;28;20117;-76
2022/06/09 08:47:22;;;;;;;0.10;0.10;;;;;;;25.24;38.28;99995.72;5012568;28;20053;-77
2022/06/09 08:50:28;;;;;;;0.77;0.13;;;;;;;25.36;39.26;99993.00;5011989;28;20044;-76
2022/06/09 08:53:13;;;;;;;1.10;0.57;;;;;;;25.47;39.34;99993.56;5012010;28;20091;-75
2022/06/09 08:55:59;;;;;;;;;;;;;;;25.41;39.85;99988.94;5013358;28;20068;-76
2022/06/09 08:58:53;;;;;;;0.20;0.10;;;;;;;25.44;39.60;99993.66;5004821;28;19913;-74
2022/06/09 09:01:56;;;;;;;0.30;0.20;;;;;;;25.51;42.45;99991.47;5012564;28;20045;-77
2022/06/09 09:04:45;;;;;;;0.85;0.20;;;;;;;25.50;44.29;99998.25;5011520;28;20068;-78
2022/06/09 09:07:32;;;;;;;5.15;0.30;;;;;;;25.52;44.50;100001.38;5008353;28;20072;-76
2022/06/09 09:10:22;;;;;;;0.22;0.00;;;;;;;25.52;39.41;100006.97;5006384;28;20042;-77
2022/06/09 09:13:31;;;;;;;2.38;0.13;;;;;;;25.48;40.86;100006.25;5009551;28;20044;-76
2022/06/09 09:16:25;;;;;;;0.47;0.20;;;;;;;25.38;38.15;100012.06;5010093;28;20395;-76
2022/06/09 09:19:40;;;;;;;0.82;0.20;;;;;;;25.48;43.02;100009.03;5023655;23;21181;-79
2022/06/09 09:23:02;;;;;;;34.38;2.08;;;;;;;25.56;40.75;100006.91;5002741;28;20615;-80
2022/06/09 09:25:57;;;;;;;1.88;0.32;;;;;;;25.54;40.28;100003.75;5017082;28;20041;-80
2022/06/09 09:28:54;;;;;;;0.28;0.20;;;;;;;25.63;39.92;99994.81;5003612;28;20049;-82
2022/06/09 09:31:45;;;;;;;0.28;0.20;;;;;;;25.83;39.41;100007.44;5024853;28;20052;-79
2022/06/09 09:34:40;;;;;;;2.63;0.20;;;;;;;25.78;39.09;99996.81;5017965;28;20423;-79
2022/06/09 09:37:32;;;;;;;0.85;0.17;;;;;;;25.73;38.12;99988.19;5020501;28;20514;-78
2022/06/09 09:40:39;;;;;;;0.57;0.10;;;;;;;25.91;37.80;100002.44;5018569;28;20121;-78
2022/06/09 09:43:32;;;;;;;0.93;0.22;;;;;;;26.05;39.08;100006.88;5018243;28;20044;-79
2022/06/09 09:46:30;;;;;;;0.38;0.20;;;;;;;26.10;39.68;99990.41;5016638;28;20061;-78
2022/06/09 09:49:31;;;;;;;1.13;0.15;;;;;;;26.10;39.30;100003.56;5017747;28;20073;-78
2022/06/09 09:52:44;;;;;;;0.75;0.20;;;;;;;26.13;39.38;100006.25;5023886;28;20053;-79
2022/06/09 09:55:37;;;;;;;1.77;0.25;;;;;;;26.15;40.57;100003.81;5020522;28;20049;-80
2022/06/09 09:58:41;;;;;;;1.95;0.30;;;;;;;26.12;39.44;100004.69;5023214;28;20053;-78
2022/06/09 10:01:32;;;;;;;5.63;0.50;;;;;;;26.11;39.71;100007.94;5016764;28;20053;-78
2022/06/09 10:10:35;;;;;;;0.35;0.10;;;;;;;26.35;39.59;100001.72;5021140;28;20064;-82
2022/06/09 10:13:31;;;;;;;2.03;0.20;;;;;;;26.33;42.16;100001.38;5021915;28;20049;-80
2022/06/09 10:16:16;;;;;;;1.52;0.40;;;;;;;26.32;40.35;99988.63;5019986;28;20041;-80
2022/06/09 10:19:04;;;;;;;0.80;0.22;;;;;;;26.47;39.68;99991.81;5023807;28;20056;-80
2022/06/09 10:21:56;;;;;;;0.85;0.20;;;;;;;26.41;41.48;99982.44;5022335;28;20049;-80
2022/06/09 10:24:56;;;;;;;2.50;0.20;;;;;;;26.38;43.14;99988.88;5020557;28;20049;-79
2022/06/09 10:27:45;;;;;;;1.35;0.57;;;;;;;26.51;39.59;99986.94;5022660;28;20049;-79
2022/06/09 10:30:44;;;;;;;1.73;0.20;;;;;;;26.51;40.52;99984.16;5023530;28;20052;-79
2022/06/09 10:33:38;;;;;;;0.28;0.17;;;;;;;26.54;41.04;99997.19;5026617;28;20044;-79
2022/06/09 10:36:47;;;;;;;1.50;0.30;;;;;;;26.51;43.58;99997.31;5023811;28;20045;-79
2022/06/09 10:40:00;;;;;;;0.30;0.20;;;;;;;26.49;42.85;99999.75;5016689;28;20049;-79
2022/06/09 10:43:03;;;;;;;0.75;0.10;;;;;;;26.46;43.86;99995.84;5017706;28;20045;-79
2022/06/09 10:45:56;;;;;;;0.60;0.28;;;;;;;26.59;39.82;99987.50;5020631;28;20403;-79
2022/06/09 10:55:41;;;;;;;1.75;0.88;;;;;;;26.73;38.49;99968.34;5014532;28;20049;-80
2022/06/09 10:58:44;;;;;;;5.68;0.45;;;;;;;26.91;38.82;99970.66;5012797;28;20038;-80
2022/06/09 11:01:32;;;;;;;11.05;0.28;;;;;;;26.82;38.92;99976.06;5027909;28;20514;-81
2022/06/09 11:04:18;;;;;;;2.17;0.25;;;;;;;26.63;40.44;99974.22;5019185;28;20041;-82
2022/06/09 11:07:27;;;;;;;0.30;0.22;;;;;;;26.76;36.62;99972.28;5017171;28;20052;-81
2022/06/09 11:10:46;;;;;;;3.13;0.20;;;;;;;26.80;38.72;99978.53;5011419;28;20053;-80
2022/06/09 11:13:34;;;;;;;1.00;0.30;;;;;;;26.92;36.32;99968.66;5014582;28;20064;-81
2022/06/09 11:16:51;;;;;;;1.30;0.28;;;;;;;26.82;37.37;99962.88;5017563;28;20056;-80
2022/06/09 11:19:44;;;;;;;0.43;0.20;;;;;;;26.99;36.81;99966.41;5017094;28;20045;-81
2022/06/09 11:22:40;;;;;;;0.50;0.20;;;;;;;26.91;38.75;99965.06;5012538;28;20053;-81
2022/06/09 11:25:48;;;;;;;2.22;0.30;;;;;;;26.76;39.35;99972.28;5014232;28;20045;-80
2022/06/09 11:29:01;;;;;;;2.92;0.20;;;;;;;26.56;40.01;99971.66;5005263;28;20542;-81
2022/06/09 11:32:06;;;;;;;1.55;0.20;;;;;;;26.45;39.01;99968.38;5016506;28;20060;-80
2022/06/09 11:34:51;;;;;;;;;;;;;;;26.29;39.55;99964.44;5005355;28;20049;-80
2022/06/09 11:37:46;;;;;;;0.55;0.38;;;;;;;26.16;39.09;99955.19;5020131;28;19917;-81
2022/06/09 11:40:41;;;;;;;3.22;0.40;;;;;;;26.31;38.91;99955.66;5006612;28;20056;-82
2022/06/09 11:43:38;;;;;;;;;;;;;;;26.33;39.42;99970.69;5013807;28;20049;-80
2022/06/09 11:46:30;;;;;;;26.73;1.27;;;;;;;26.26;39.18;99975.69;5010821;28;19917;-80
2022/06/09 11:49:29;;;;;;;0.85;0.38;;;;;;;26.22;39.79;99961.84;5012049;28;20049;-80
2022/06/09 11:52:24;;;;;;;4.03;0.50;;;;;;;26.20;39.57;99953.13;5008373;28;20045;-79
2022/06/09 11:58:35;;;;;;;1.05;0.40;;;;;;;26.15;39.73;99970.38;5011086;28;20049;-80
2022/06/09 12:01:43;;;;;;;3.55;0.20;;;;;;;26.33;39.12;99956.75;5010871;28;20052;-80
2022/06/09 12:04:42;;;;;;;1.23;0.40;;;;;;;26.39;39.25;99957.78;5012819;28;20037;-80
2022/06/09 12:07:41;;;;;;;7.43;0.50;;;;;;;26.48;38.64;99957.13;5016159;28;20049;-80
2022/06/09 12:10:29;;;;;;;1.23;0.35;;;;;;;26.53;38.07;99955.81;5013433;28;20048;-80
2022/06/09 12:13:18;;;;;;;1.70;0.38;;;;;;;26.38;37.50;99950.63;5029499;28;20049;-81
2022/06/09 12:16:21;;;;;;;0.60;0.30;;;;;;;26.31;39.02;99956.41;5010238;28;20665;-81
2022/06/09 12:19:23;;;;;;;1.33;0.40;;;;;;;26.59;38.98;99954.81;5004786;28;20057;-81
2022/06/09 12:22:33;;;;;;;3.90;0.45;;;;;;;26.66;39.11;99954.63;5008142;28;20414;-80
2022/06/09 12:25:33;;;;;;;1.52;0.40;;;;;;;26.92;38.83;99947.06;5021894;28;20427;-83
2022/06/09 12:29:00;;;;;;;1.13;0.40;;;;;;;26.95;37.91;99951.00;5018007;28;20049;-84
2022/06/09 12:32:08;;;;;;;5.43;0.50;;;;;;;26.91;38.22;99945.53;5016422;28;20041;-84
2022/06/09 12:34:55;;;;;;;2.22;0.45;;;;;;;26.65;37.87;99946.69;5020836;28;20048;-82
2022/06/09 12:37:52;;;;;;;1.13;0.45;;;;;;;26.54;39.44;99944.22;5009508;28;20426;-82
2022/06/09 12:40:49;;;;;;;1.63;0.40;;;;;;;26.77;38.84;99943.91;5018428;28;20129;-82
2022/06/09 12:43:39;;;;;;;0.70;0.40;;;;;;;26.61;38.90;99949.59;5023499;28;20052;-82
2022/06/09 12:46:27;;;;;;;1.63;0.50;;;;;;;26.75;38.16;99943.59;5017759;28;20048;-82
2022/06/09 12:49:36;;;;;;;0.57;0.40;;;;;;;26.70;38.37;99948.94;5017148;28;20060;-81
2022/06/09 12:52:24;;;;;;;0.75;0.50;;;;;;;26.83;38.16;99952.50;5014091;28;20044;-82
2022/06/09 12:55:20;;;;;;;1.27;0.70;;;;;;;26.71;38.07;99948.50;5019493;28;20045;-82
2022/06/09 12:58:26;;;;;;;1.08;0.35;;;;;;;26.91;38.47;99950.34;5013718;28;20533;-81
2022/06/09 13:01:15;;;;;;;2.15;0.60;;;;;;;26.95;38.46;99951.78;5021860;28;20049;-81
2022/06/09 13:04:04;;;;;;;3.15;0.50;;;;;;;26.93;38.17;99951.44;5019119;28;20061;-81
2022/06/09 13:06:49;;;;;;;0.98;0.30;;;;;;;26.67;39.28;99960.97;5017298;28;20045;-83
2022/06/09 13:09:37;;;;;;;0.93;0.43;;;;;;;26.74;38.39;99955.19;5015572;28;20057;-84
2022/06/09 13:15:40;;;;;;;5.03;0.45;;;;;;;26.95;37.42;99962.16;5025030;28;20049;-84
2022/06/09 13:18:34;;;;;;;5.88;0.50;;;;;;;26.99;38.23;99969.19;5020334;28;20422;-84
2022/06/09 13:21:26;;;;;;;1.77;0.73;;;;;;;26.92;37.45;99954.69;5018530;28;20045;-85
2022/06/09 13:24:19;;;;;;;1.30;0.30;;;;;;;26.88;38.24;99959.56;5023671;28;20083;-84
2022/06/09 13:27:14;;;;;;;1.05;0.30;;;;;;;26.92;37.67;99961.03;5018845;28;20041;-85
2022/06/09 13:30:26;;;;;;;3.95;0.60;;;;;;;27.09;38.94;99970.09;5020041;28;20048;-85
2022/06/09 13:33:31;;;;;;;2.05;0.20;;;;;;;26.89;38.06;99956.34;5013801;28;20041;-82
2022/06/09 13:36:32;;;;;;;5.97;2.00;;;;;;;26.87;39.35;99952.47;5027297;28;20049;-84
2022/06/09 13:39:23;;;;;;;3.63;0.70;;;;;;;26.60;38.64;99950.81;5010369;28;20041;-84
2022/06/09 13:42:09;;;;;;;0.93;0.50;;;;;;;26.46;39.28;99950.44;5018157;28;20068;-85
2022/06/09 13:45:02;;;;;;;7.68;0.82;;;;;;;26.38;39.23;99953.41;5020831;28;20053;-86
2022/06/09 13:48:17;;;;;;;5.78;0.50;;;;;;;26.24;39.30;99948.25;5019040;28;20045;-85
2022/06/09 13:51:01;;;;;;;3.80;1.33;;;;;;;26.31;39.99;99961.97;5015948;28;20061;-85
2022/06/09 13:53:50;;;;;;;;;;;;;;;26.42;39.82;99960.91;5012582;28;20045;-82
2022/06/09 13:56:34;;;;;;;1.85;0.40;;;;;;;26.35;39.06;99965.47;5016340;28;19913;-84
2022/06/09 13:59:23;;;;;;;0.80;0.38;;;;;;;26.29;38.52;99975.59;5015166;28;20056;-85
2022/06/09 14:02:15;;;;;;;0.25;0.25;;;;;;;26.17;38.16;99975.50;5020275;28;20057;-84